Terminal Aerodrome Forecast
Issued by NWS Dallas/Fort Worth, TX

Home | Current Version | Previous Version | Text Only | Print | Product List | Glossary On
Versions: 1 2 3 4 5 6 7 8 9 10 11 12 13 14 15 16 17 18 19 20 21 22 23 24 25 26 27 28 29 30 31 32 33 34 35 36 37 38 39 40 41
000
FTUS44 KFWD 032340
TAFDFW
TAF
KDFW 032340Z 0400/0506 14005KT 1SM -DZ BR OVC003
      TEMPO 0401/0404 3/4SM -DZ BR OVC002
     FM041000 03010KT 5SM -RA BR OVC004
     FM041500 36015G25KT 4SM RA BR OVC005
     FM041800 36020G30KT 3SM -RA OVC007
     FM042200 36023G33KT 5SM -FZRA OVC007
     FM050200 36021G31KT 6SM -PL OVC008=

USA.gov is the U.S. government's official web portal to all federal, state and local government web resources and services.